Time;durP1;ratioP1;P1;durP2;ratioP2;P2;SDS_P1;SDS_P2;PMS_P1;PMS_P2;Temp;Humidity;BMP_temperature;BMP_pressure;BME280_temperature;BME280_humidity;BME280_pressure;Samples;Min_cycle;Max_cycle;Signal;HPM_P1;HPM_P2
2023/10/20 00:02:16;;;;;;;45.72;24.48;;;8.80;99.90;;;;;;5032768;28;20037;-84
2023/10/20 00:04:42;;;;;;;58.13;26.90;;;8.80;99.90;;;;;;5020886;28;20048;-84
2023/10/20 00:07:07;;;;;;;46.75;24.45;;;8.80;99.90;;;;;;5048045;28;20091;-85
2023/10/20 00:09:33;;;;;;;49.25;24.55;;;8.70;99.90;;;;;;5024353;28;20052;-84
2023/10/20 00:11:59;;;;;;;48.92;25.88;;;8.70;99.90;;;;;;5027815;28;20037;-84
2023/10/20 00:14:25;;;;;;;48.95;24.55;;;8.70;99.90;;;;;;5049190;28;20039;-84
2023/10/20 00:16:51;;;;;;;47.50;24.83;;;8.70;99.90;;;;;;5017897;28;20041;-84
2023/10/20 00:19:18;;;;;;;56.75;26.60;;;8.70;99.90;;;;;;5032342;28;20041;-84
2023/10/20 00:21:45;;;;;;;52.85;26.25;;;8.80;99.90;;;;;;5031879;28;20045;-84
2023/10/20 00:24:11;;;;;;;50.08;25.70;;;8.80;99.90;;;;;;5027984;28;20039;-84
2023/10/20 00:26:36;;;;;;;57.53;27.13;;;8.70;99.90;;;;;;5039886;28;20128;-84
2023/10/20 00:29:02;;;;;;;66.32;27.40;;;8.70;99.90;;;;;;5017225;28;20129;-85
2023/10/20 00:31:29;;;;;;;52.58;25.63;;;8.70;99.90;;;;;;5024202;28;20029;-83
2023/10/20 00:33:55;;;;;;;58.70;26.92;;;8.70;99.90;;;;;;5037264;28;20036;-85
2023/10/20 00:36:21;;;;;;;58.58;25.50;;;8.70;99.90;;;;;;5058107;28;20099;-84
2023/10/20 00:38:46;;;;;;;44.70;24.00;;;8.70;99.90;;;;;;5035732;28;20044;-84
2023/10/20 00:41:13;;;;;;;56.08;26.08;;;8.70;99.90;;;;;;5024676;28;20035;-85
2023/10/20 00:43:39;;;;;;;57.05;27.10;;;8.70;99.90;;;;;;5046273;28;20553;-84
2023/10/20 00:46:05;;;;;;;54.15;24.85;;;8.70;99.90;;;;;;5048820;28;20041;-84
2023/10/20 00:48:37;;;;;;;50.47;25.50;;;8.70;99.90;;;;;;5050024;28;20032;-84
2023/10/20 00:51:07;;;;;;;60.33;25.45;;;8.70;99.90;;;;;;5050960;28;20041;-85
2023/10/20 00:53:36;;;;;;;48.97;24.00;;;8.70;99.90;;;;;;5022383;28;20041;-84
2023/10/20 00:56:06;;;;;;;53.13;25.00;;;8.70;99.90;;;;;;5038565;28;20044;-83
2023/10/20 00:58:32;;;;;;;50.55;25.05;;;8.70;99.90;;;;;;5028653;28;20037;-84
2023/10/20 01:00:57;;;;;;;53.75;25.00;;;8.70;99.90;;;;;;5029786;28;20029;-84
2023/10/20 01:03:23;;;;;;;61.60;26.63;;;8.70;99.90;;;;;;5044136;28;20040;-84
2023/10/20 01:05:50;;;;;;;54.35;25.15;;;8.70;99.90;;;;;;5049021;28;20441;-84
2023/10/20 01:08:16;;;;;;;50.17;25.48;;;8.70;99.90;;;;;;5055817;28;20234;-84
2023/10/20 01:10:41;;;;;;;46.08;23.98;;;8.70;99.90;;;;;;5042186;28;20647;-85
2023/10/20 01:13:08;;;;;;;56.03;24.15;;;8.70;99.90;;;;;;5048930;28;20064;-84
2023/10/20 01:15:35;;;;;;;46.03;24.45;;;8.70;99.90;;;;;;5051523;28;20055;-85
2023/10/20 01:18:00;;;;;;;52.13;26.58;;;8.70;99.90;;;;;;5049973;28;20029;-84
2023/10/20 01:20:26;;;;;;;47.08;23.80;;;8.70;99.90;;;;;;5051865;28;20132;-84
2023/10/20 01:22:51;;;;;;;65.85;26.67;;;8.70;99.90;;;;;;5048470;28;20036;-85
2023/10/20 01:25:17;;;;;;;48.08;23.33;;;8.60;99.90;;;;;;5027737;28;20037;-84
2023/10/20 01:27:43;;;;;;;43.38;22.83;;;8.60;99.90;;;;;;5030482;28;20047;-83
2023/10/20 01:30:12;;;;;;;49.30;24.63;;;8.60;99.90;;;;;;5034016;28;20033;-85
2023/10/20 01:32:39;;;;;;;60.10;24.85;;;8.60;99.90;;;;;;5051390;28;20041;-85
2023/10/20 01:35:05;;;;;;;49.85;24.08;;;8.60;99.90;;;;;;5023247;28;20041;-84
2023/10/20 01:37:31;;;;;;;47.92;24.80;;;8.60;99.90;;;;;;5047192;28;20124;-84
2023/10/20 01:39:57;;;;;;;49.65;23.55;;;8.60;99.90;;;;;;5031589;28;20112;-84
2023/10/20 01:42:22;;;;;;;46.22;23.60;;;8.60;99.90;;;;;;5053692;28;20544;-84
2023/10/20 01:44:48;;;;;;;51.50;24.42;;;8.60;99.90;;;;;;5045574;28;20072;-85
2023/10/20 01:47:13;;;;;;;52.08;25.77;;;8.60;99.90;;;;;;5051998;28;20388;-84
2023/10/20 01:49:39;;;;;;;56.90;26.08;;;8.60;99.90;;;;;;5033552;28;20053;-84
2023/10/20 01:52:04;;;;;;;49.25;24.05;;;8.60;99.90;;;;;;5032087;28;20093;-85
2023/10/20 01:54:30;;;;;;;47.97;24.77;;;8.60;99.90;;;;;;5032312;28;20132;-84
2023/10/20 01:56:56;;;;;;;53.20;25.88;;;8.60;99.90;;;;;;5035546;28;20140;-85
2023/10/20 01:59:22;;;;;;;57.67;26.15;;;8.60;99.90;;;;;;5037754;28;20498;-85
2023/10/20 02:01:48;;;;;;;64.07;27.50;;;8.60;99.90;;;;;;5026291;28;20093;-84
2023/10/20 02:04:14;;;;;;;44.00;22.70;;;8.60;99.90;;;;;;5025785;28;20116;-85
2023/10/20 02:06:39;;;;;;;64.32;25.17;;;8.60;99.90;;;;;;5042995;28;20034;-86
2023/10/20 02:09:06;;;;;;;50.00;25.02;;;8.60;99.90;;;;;;5040783;28;20033;-84
2023/10/20 02:11:31;;;;;;;56.67;25.40;;;8.60;99.90;;;;;;5045348;28;20029;-84
2023/10/20 02:13:57;;;;;;;52.42;25.80;;;8.50;99.90;;;;;;5031242;28;20044;-84
2023/10/20 02:16:24;;;;;;;43.53;24.10;;;8.50;99.90;;;;;;5027418;28;20120;-84
2023/10/20 02:18:49;;;;;;;49.95;25.30;;;8.50;99.90;;;;;;5031500;28;20045;-85
2023/10/20 02:21:15;;;;;;;48.67;23.83;;;8.50;99.90;;;;;;5049558;28;20036;-85
2023/10/20 02:23:41;;;;;;;56.38;26.00;;;8.50;99.90;;;;;;5024831;28;20064;-85
2023/10/20 02:26:08;;;;;;;52.00;24.20;;;8.50;99.90;;;;;;5042135;28;20033;-84
2023/10/20 02:28:37;;;;;;;48.15;24.30;;;8.50;99.90;;;;;;5024097;28;20047;-85
2023/10/20 02:31:12;;;;;;;47.72;25.63;;;8.50;99.90;;;;;;5047897;28;20499;-85
2023/10/20 02:33:38;;;;;;;48.72;24.48;;;8.50;99.90;;;;;;5032367;28;20106;-84
2023/10/20 02:36:04;;;;;;;40.97;23.20;;;8.50;99.90;;;;;;5049103;28;20041;-85
2023/10/20 02:38:30;;;;;;;58.75;27.73;;;8.50;99.90;;;;;;5048687;28;20040;-83
2023/10/20 02:40:56;;;;;;;52.47;25.88;;;8.50;99.90;;;;;;5033992;28;20067;-85
2023/10/20 02:43:22;;;;;;;52.33;25.58;;;8.50;99.90;;;;;;5034587;28;20056;-84
2023/10/20 02:45:54;;;;;;;48.55;24.88;;;8.50;99.90;;;;;;5031844;28;20038;-85
2023/10/20 02:48:21;;;;;;;47.42;25.08;;;8.50;99.90;;;;;;5050565;28;20037;-85
2023/10/20 02:50:46;;;;;;;45.53;24.55;;;8.50;99.90;;;;;;5029186;28;20608;-85
2023/10/20 02:53:13;;;;;;;48.30;24.88;;;8.50;99.90;;;;;;5021957;28;20116;-84
2023/10/20 02:55:40;;;;;;;48.53;24.73;;;8.50;99.90;;;;;;5032714;28;20041;-84
2023/10/20 02:58:05;;;;;;;46.05;24.45;;;8.50;99.90;;;;;;5050483;28;20478;-84
2023/10/20 03:00:33;;;;;;;46.40;24.33;;;8.50;99.90;;;;;;5026641;28;20060;-85
2023/10/20 03:02:58;;;;;;;44.70;24.55;;;8.50;99.90;;;;;;5042798;28;20041;-84
2023/10/20 03:05:29;;;;;;;44.83;26.67;;;8.50;99.90;;;;;;5039844;28;20033;-85
2023/10/20 03:07:57;;;;;;;50.63;25.83;;;8.50;99.90;;;;;;5032479;28;20033;-84
2023/10/20 03:10:23;;;;;;;47.30;24.60;;;8.50;99.90;;;;;;5050495;28;20041;-84
2023/10/20 03:12:48;;;;;;;43.75;23.63;;;8.40;99.90;;;;;;5042719;28;20051;-84
2023/10/20 03:15:15;;;;;;;50.97;26.65;;;8.50;99.90;;;;;;5043373;28;20516;-85
2023/10/20 03:17:40;;;;;;;46.78;24.15;;;8.50;99.90;;;;;;5040163;28;20462;-84
2023/10/20 03:20:08;;;;;;;49.55;24.00;;;8.50;99.90;;;;;;5045014;28;20120;-84
2023/10/20 03:22:34;;;;;;;45.42;23.08;;;8.40;99.90;;;;;;5027324;28;20041;-84
2023/10/20 03:25:04;;;;;;;65.18;26.27;;;8.40;99.90;;;;;;5031337;28;20099;-85
2023/10/20 03:27:30;;;;;;;44.28;24.67;;;8.40;99.90;;;;;;5050117;28;20437;-84
2023/10/20 03:29:56;;;;;;;45.35;24.60;;;8.40;99.90;;;;;;5047484;28;20060;-84
2023/10/20 03:32:21;;;;;;;47.67;24.48;;;8.40;99.90;;;;;;5047812;28;20499;-84
2023/10/20 03:34:47;;;;;;;51.20;24.75;;;8.40;99.90;;;;;;5046843;28;20045;-84
2023/10/20 03:37:13;;;;;;;41.10;23.52;;;8.40;99.90;;;;;;5027167;28;20500;-85
2023/10/20 03:39:39;;;;;;;43.75;22.58;;;8.40;99.90;;;;;;5021162;28;20041;-84
2023/10/20 03:42:07;;;;;;;39.05;22.50;;;8.40;99.90;;;;;;5046327;28;20033;-84
2023/10/20 03:44:33;;;;;;;45.42;23.50;;;8.40;99.90;;;;;;5028680;28;20032;-84
2023/10/20 03:46:59;;;;;;;44.75;23.05;;;8.40;99.90;;;;;;5032921;28;20040;-84
2023/10/20 03:49:26;;;;;;;42.95;23.73;;;8.40;99.90;;;;;;5019198;28;20043;-84
2023/10/20 03:51:53;;;;;;;41.08;23.42;;;8.40;99.90;;;;;;5024508;28;20044;-84
2023/10/20 03:54:19;;;;;;;41.55;24.08;;;8.40;99.90;;;;;;5049214;28;20037;-83
2023/10/20 03:56:44;;;;;;;44.00;22.65;;;8.40;99.90;;;;;;5020139;28;20051;-85
2023/10/20 03:59:11;;;;;;;43.63;23.38;;;8.40;99.90;;;;;;5041891;28;20041;-85
2023/10/20 04:01:40;;;;;;;44.33;24.10;;;8.40;99.90;;;;;;5037696;28;20052;-84
2023/10/20 04:04:09;;;;;;;41.45;22.63;;;8.40;99.90;;;;;;5049082;28;20036;-85
2023/10/20 04:06:38;;;;;;;39.88;23.05;;;8.40;99.90;;;;;;5033742;28;20033;-84
2023/10/20 04:09:11;;;;;;;40.75;23.73;;;8.40;99.90;;;;;;5046075;28;20033;-85
2023/10/20 04:11:38;;;;;;;42.65;23.00;;;8.40;99.90;;;;;;5030643;28;20392;-85
2023/10/20 04:14:08;;;;;;;41.08;22.83;;;8.40;99.90;;;;;;5029978;28;20068;-84
2023/10/20 04:16:41;;;;;;;43.58;24.63;;;8.40;99.90;;;;;;5049338;28;20099;-85
2023/10/20 04:19:10;;;;;;;42.00;21.17;;;8.40;99.90;;;;;;5036909;28;20135;-84
2023/10/20 04:21:38;;;;;;;38.83;22.15;;;8.40;99.90;;;;;;5022099;28;20038;-84
2023/10/20 04:24:07;;;;;;;40.47;22.30;;;8.40;99.90;;;;;;5029693;28;20029;-84
2023/10/20 04:26:42;;;;;;;42.10;22.88;;;8.40;99.90;;;;;;5030250;28;20090;-84
2023/10/20 04:29:23;;;;;;;40.65;22.75;;;8.40;99.90;;;;;;5047496;28;20561;-84
2023/10/20 04:48:31;;;;;;;43.00;22.63;;;8.30;99.90;;;;;;5047695;28;20507;-84
2023/10/20 04:51:12;;;;;;;45.55;23.67;;;8.30;99.90;;;;;;5024682;28;20048;-85
2023/10/20 04:53:55;;;;;;;37.85;21.95;;;8.30;99.90;;;;;;5028265;28;21332;-85
2023/10/20 04:59:05;;;;;;;43.78;23.00;;;8.30;99.90;;;;;;5048608;28;20431;-85
2023/10/20 05:01:47;;;;;;;40.03;22.63;;;8.30;99.90;;;;;;5021464;28;20098;-84
2023/10/20 05:04:16;;;;;;;41.15;22.60;;;8.20;99.90;;;;;;5021866;28;20041;-84
2023/10/20 05:06:44;;;;;;;42.25;23.35;;;8.30;99.90;;;;;;5046495;28;20124;-84
2023/10/20 05:09:14;;;;;;;40.25;23.10;;;8.30;99.90;;;;;;5017747;28;20084;-84
2023/10/20 05:11:40;;;;;;;41.17;22.73;;;8.30;99.90;;;;;;5031211;28;20418;-84
2023/10/20 05:14:06;;;;;;;38.63;23.05;;;8.30;99.90;;;;;;5031687;28;20036;-84
2023/10/20 05:16:34;;;;;;;38.45;22.08;;;8.30;99.90;;;;;;5027287;28;20044;-85
2023/10/20 05:19:04;;;;;;;39.88;23.02;;;8.30;99.90;;;;;;5040088;28;20029;-84
2023/10/20 05:21:33;;;;;;;36.17;21.05;;;8.30;99.90;;;;;;5021950;28;20376;-84
2023/10/20 05:24:03;;;;;;;38.22;21.75;;;8.30;99.90;;;;;;5028249;28;20029;-84
2023/10/20 05:26:30;;;;;;;38.20;20.80;;;8.30;99.90;;;;;;5045961;28;20029;-83
2023/10/20 05:28:56;;;;;;;35.85;21.08;;;8.30;99.90;;;;;;5036990;28;20037;-84
2023/10/20 05:31:26;;;;;;;35.78;21.05;;;8.30;99.90;;;;;;5027932;28;20395;-84
2023/10/20 05:33:53;;;;;;;38.97;20.83;;;8.20;99.90;;;;;;5050187;28;20033;-84
2023/10/20 05:36:21;;;;;;;37.03;22.40;;;8.20;99.90;;;;;;5049361;28;20091;-84
2023/10/20 05:38:47;;;;;;;32.45;20.67;;;8.30;99.90;;;;;;5048586;28;20037;-86
2023/10/20 05:41:12;;;;;;;36.05;20.15;;;8.20;99.90;;;;;;5032238;28;20043;-88
2023/10/20 05:43:38;;;;;;;33.15;20.13;;;8.20;99.90;;;;;;5019125;28;20040;-85
2023/10/20 05:46:05;;;;;;;31.70;20.00;;;8.20;99.90;;;;;;5029037;28;20039;-86
2023/10/20 05:48:31;;;;;;;25.65;17.05;;;8.20;99.90;;;;;;5026908;28;20041;-84
2023/10/20 05:50:57;;;;;;;29.85;18.65;;;8.20;99.90;;;;;;5021265;28;20056;-85
2023/10/20 05:53:26;;;;;;;30.25;18.40;;;8.20;99.90;;;;;;5025805;28;20051;-84
2023/10/20 05:55:55;;;;;;;29.80;17.60;;;8.20;99.90;;;;;;5036385;28;20048;-86
2023/10/20 05:58:22;;;;;;;28.08;17.60;;;8.10;99.90;;;;;;5049034;28;20486;-86
2023/10/20 06:00:48;;;;;;;27.23;17.48;;;8.10;99.90;;;;;;5038033;28;20384;-85
2023/10/20 06:03:14;;;;;;;27.77;17.83;;;8.10;99.90;;;;;;5042840;28;20037;-85
2023/10/20 06:05:40;;;;;;;30.02;18.35;;;8.10;99.90;;;;;;5026117;28;20037;-84
2023/10/20 06:08:06;;;;;;;26.63;16.92;;;8.20;99.90;;;;;;5055884;28;20044;-85
2023/10/20 06:10:31;;;;;;;30.85;17.92;;;8.10;99.90;;;;;;5042766;28;20531;-85
2023/10/20 06:12:57;;;;;;;30.58;17.42;;;8.10;99.90;;;;;;5050948;28;20160;-85
2023/10/20 06:15:23;;;;;;;25.60;16.52;;;8.20;99.90;;;;;;5046590;28;20530;-83
2023/10/20 06:17:50;;;;;;;27.38;17.23;;;8.10;99.90;;;;;;5046856;28;20046;-84
2023/10/20 06:20:16;;;;;;;27.92;17.73;;;8.10;99.90;;;;;;5037634;28;20490;-85
2023/10/20 06:22:42;;;;;;;26.73;16.75;;;8.10;99.90;;;;;;5048413;28;20037;-82
2023/10/20 06:25:14;;;;;;;25.67;15.30;;;8.10;99.90;;;;;;5050795;28;20052;-87
2023/10/20 06:27:45;;;;;;;21.50;15.07;;;8.10;99.90;;;;;;5028743;28;20412;-85
2023/10/20 06:30:22;;;;;;;27.13;17.88;;;8.10;99.90;;;;;;5047700;28;20454;-86
2023/10/20 06:33:06;;;;;;;24.92;15.57;;;8.20;99.90;;;;;;5021491;28;20071;-86
2023/10/20 06:35:32;;;;;;;26.33;16.08;;;8.10;99.90;;;;;;5045111;28;20045;-86
2023/10/20 06:40:34;;;;;;;25.10;15.68;;;8.10;99.90;;;;;;5046519;28;20041;-89
2023/10/20 06:42:59;;;;;;;22.55;16.02;;;8.00;99.90;;;;;;5049981;28;20460;-88
2023/10/20 06:45:25;;;;;;;23.17;14.82;;;8.10;99.90;;;;;;5018782;28;20029;-86
2023/10/20 06:47:50;;;;;;;22.30;14.90;;;8.10;99.90;;;;;;5033110;28;20079;-87
2023/10/20 06:50:16;;;;;;;21.05;14.18;;;8.10;99.90;;;;;;5052268;28;20097;-87
2023/10/20 06:52:42;;;;;;;20.63;14.50;;;8.10;99.90;;;;;;5047910;28;20044;-86
2023/10/20 06:55:09;;;;;;;20.67;13.75;;;8.10;99.90;;;;;;5048933;28;20043;-86
2023/10/20 06:57:34;;;;;;;23.27;14.10;;;8.10;99.90;;;;;;5045801;28;20037;-87
2023/10/20 07:00:01;;;;;;;22.52;14.55;;;8.10;99.90;;;;;;5024686;28;20042;-86
2023/10/20 07:02:27;;;;;;;19.55;13.65;;;8.10;99.90;;;;;;5041224;28;20056;-86
2023/10/20 07:04:53;;;;;;;22.35;14.65;;;8.10;99.90;;;;;;5029387;28;20048;-85
2023/10/20 07:07:19;;;;;;;18.35;13.10;;;8.10;99.90;;;;;;5031186;28;20124;-86
2023/10/20 07:09:45;;;;;;;20.80;13.23;;;8.10;99.90;;;;;;5043318;28;20045;-86
2023/10/20 07:12:11;;;;;;;20.63;12.60;;;8.10;99.90;;;;;;5039779;28;20037;-86
2023/10/20 07:14:40;;;;;;;18.83;13.55;;;8.10;99.90;;;;;;5029478;28;20510;-86
2023/10/20 07:17:06;;;;;;;19.02;13.20;;;8.10;99.90;;;;;;5045604;28;20041;-84
2023/10/20 07:19:36;;;;;;;17.50;13.73;;;8.10;99.90;;;;;;5033590;28;20037;-86
2023/10/20 07:22:05;;;;;;;17.48;13.30;;;8.10;99.90;;;;;;5022767;28;20143;-86
2023/10/20 07:24:31;;;;;;;18.30;13.13;;;8.10;99.90;;;;;;5026888;28;20055;-85
2023/10/20 07:26:58;;;;;;;19.80;13.85;;;8.10;99.90;;;;;;5049480;28;20809;-86
2023/10/20 07:29:24;;;;;;;17.80;12.90;;;8.10;99.90;;;;;;5031437;28;20688;-87
2023/10/20 07:31:51;;;;;;;18.88;12.85;;;8.10;99.90;;;;;;5028768;28;20037;-87
2023/10/20 07:34:17;;;;;;;17.17;12.93;;;8.10;99.90;;;;;;5036774;28;20047;-88
2023/10/20 07:36:45;;;;;;;17.10;12.25;;;8.10;99.90;;;;;;5025923;28;20132;-88
2023/10/20 07:39:16;;;;;;;15.00;12.35;;;8.00;99.90;;;;;;5021948;28;20046;-88
2023/10/20 07:41:45;;;;;;;17.58;13.50;;;8.10;99.90;;;;;;5028872;28;20045;-87
2023/10/20 07:44:18;;;;;;;17.15;12.77;;;8.10;99.90;;;;;;5025815;28;20061;-87
2023/10/20 07:46:44;;;;;;;15.07;12.90;;;8.10;99.90;;;;;;5029041;28;20407;-88
2023/10/20 07:49:13;;;;;;;16.02;12.85;;;8.10;99.90;;;;;;5045097;28;20037;-87
2023/10/20 07:51:39;;;;;;;13.85;12.32;;;8.10;99.90;;;;;;5044562;28;20075;-87
2023/10/20 07:54:08;;;;;;;17.27;14.13;;;8.10;99.90;;;;;;5024172;28;20030;-88
2023/10/20 07:56:34;;;;;;;17.77;13.98;;;8.10;99.90;;;;;;5031992;28;20042;-88
2023/10/20 07:59:00;;;;;;;17.13;13.77;;;8.10;99.90;;;;;;5026801;28;20025;-87
2023/10/20 08:01:26;;;;;;;20.27;15.02;;;8.10;99.90;;;;;;5026650;28;20029;-89
2023/10/20 08:03:52;;;;;;;15.57;13.45;;;8.10;99.90;;;;;;5028720;28;20029;-89
2023/10/20 08:06:22;;;;;;;14.98;12.98;;;8.10;99.90;;;;;;5030736;28;20494;-87
2023/10/20 08:08:48;;;;;;;13.55;12.05;;;8.10;99.90;;;;;;5046295;28;20067;-87
2023/10/20 08:11:13;;;;;;;13.05;11.75;;;8.10;99.90;;;;;;5026593;28;20033;-88
2023/10/20 08:13:39;;;;;;;12.43;11.10;;;8.10;99.90;;;;;;5025978;28;20041;-87
2023/10/20 08:16:08;;;;;;;15.30;11.35;;;8.10;99.90;;;;;;5022949;28;20095;-87
2023/10/20 08:18:34;;;;;;;11.10;9.57;;;8.10;99.90;;;;;;5031250;28;20071;-86
2023/10/20 08:21:09;;;;;;;11.70;9.55;;;8.10;99.90;;;;;;5027698;28;20447;-87
2023/10/20 08:23:37;;;;;;;9.77;8.77;;;8.20;99.90;;;;;;5039638;28;20041;-88
2023/10/20 08:26:06;;;;;;;13.68;9.63;;;8.10;99.90;;;;;;5024932;28;20506;-88
2023/10/20 08:28:32;;;;;;;10.02;8.43;;;8.00;99.90;;;;;;5040796;28;20041;-87
2023/10/20 08:31:16;;;;;;;11.25;8.32;;;8.00;99.90;;;;;;5024972;28;20041;-87
2023/10/20 08:33:43;;;;;;;10.02;8.27;;;8.00;99.90;;;;;;5030321;28;20033;-90
2023/10/20 08:36:13;;;;;;;9.48;7.43;;;8.10;99.90;;;;;;5028347;28;20041;-87
2023/10/20 08:38:45;;;;;;;8.35;7.35;;;8.10;99.90;;;;;;5027072;28;20132;-88
2023/10/20 08:41:19;;;;;;;7.57;6.82;;;8.10;99.90;;;;;;5034201;28;20037;-88
2023/10/20 08:43:46;;;;;;;8.15;7.38;;;8.00;99.90;;;;;;5025073;28;20033;-87
2023/10/20 08:46:14;;;;;;;8.15;7.35;;;8.10;99.90;;;;;;5027878;28;20041;-86
2023/10/20 08:48:41;;;;;;;7.13;6.38;;;8.10;99.90;;;;;;5043814;28;20099;-86
2023/10/20 08:51:08;;;;;;;7.60;6.50;;;8.10;99.90;;;;;;5038275;28;20423;-87
2023/10/20 08:53:36;;;;;;;6.75;6.13;;;8.10;99.90;;;;;;5032298;28;20044;-87
2023/10/20 08:56:04;;;;;;;5.93;5.32;;;8.00;99.90;;;;;;5055969;28;20517;-87
2023/10/20 08:58:30;;;;;;;5.10;4.63;;;8.00;99.90;;;;;;5033426;28;20037;-85
2023/10/20 09:00:57;;;;;;;6.13;5.53;;;8.00;99.90;;;;;;5051808;28;20510;-87
2023/10/20 09:03:26;;;;;;;5.68;5.18;;;8.00;99.90;;;;;;5056055;28;20032;-87
2023/10/20 09:06:06;;;;;;;4.97;4.40;;;8.00;99.90;;;;;;5037270;28;20043;-87
2023/10/20 09:08:32;;;;;;;5.28;4.60;;;8.00;99.90;;;;;;5032192;28;20147;-87
2023/10/20 09:10:58;;;;;;;5.47;4.97;;;8.00;99.90;;;;;;5034422;28;20041;-86
2023/10/20 09:13:34;;;;;;;4.53;4.13;;;8.00;99.90;;;;;;5034838;28;20513;-89
2023/10/20 09:16:07;;;;;;;4.93;4.43;;;8.00;99.90;;;;;;5035750;28;20411;-87
2023/10/20 09:18:50;;;;;;;4.05;3.65;;;8.00;99.90;;;;;;5032091;28;20037;-88
2023/10/20 09:21:18;;;;;;;4.90;4.13;;;8.00;99.90;;;;;;5030508;28;20410;-86
2023/10/20 09:27:09;;;;;;;;;;;8.00;99.90;;;;;;5047214;28;20045;-87
2023/10/20 09:29:37;;;;;;;3.55;3.17;;;8.00;99.90;;;;;;5020956;28;19921;-86
2023/10/20 09:32:05;;;;;;;3.92;3.50;;;7.90;99.90;;;;;;5023751;28;20144;-87
2023/10/20 09:34:30;;;;;;;4.60;4.20;;;7.90;99.90;;;;;;5041179;28;20029;-88
2023/10/20 09:36:56;;;;;;;4.10;3.80;;;8.00;99.90;;;;;;5045974;28;20407;-90
2023/10/20 09:39:37;;;;;;;4.47;4.07;;;8.00;99.90;;;;;;5052106;28;20445;-85
2023/10/20 09:42:05;;;;;;;4.35;3.95;;;8.00;99.90;;;;;;5036917;28;20508;-86
2023/10/20 09:45:04;;;;;;;4.10;3.80;;;8.00;99.90;;;;;;5025730;28;20064;-86
2023/10/20 09:47:31;;;;;;;3.70;3.38;;;8.00;99.90;;;;;;5041487;28;20053;-85
2023/10/20 09:49:57;;;;;;;3.60;3.30;;;8.00;99.90;;;;;;5023581;28;20076;-87
2023/10/20 09:52:23;;;;;;;3.70;3.40;;;8.00;99.90;;;;;;5020566;28;20044;-87
2023/10/20 09:54:50;;;;;;;3.10;2.90;;;8.00;99.90;;;;;;5023975;28;20041;-88
2023/10/20 09:57:18;;;;;;;2.85;2.65;;;8.00;99.90;;;;;;5040093;28;20059;-88
2023/10/20 09:59:51;;;;;;;3.08;2.78;;;8.10;99.90;;;;;;5030556;28;20033;-88
2023/10/20 10:02:26;;;;;;;3.50;3.15;;;8.00;99.90;;;;;;5045279;28;20348;-87
2023/10/20 10:06:15;;;;;;;;;;;;;;;;;;;;;
2023/10/20 10:12:58;;;;;;;3.20;3.00;;;8.00;99.90;;;;;;5050184;28;20408;-31
2023/10/20 10:15:36;;;;;;;3.05;2.85;;;8.00;99.90;;;;;;5054658;28;20047;-30
2023/10/20 10:18:09;;;;;;;2.85;2.65;;;7.90;99.90;;;;;;5047557;28;20276;-30
2023/10/20 10:20:46;;;;;;;2.55;2.38;;;7.90;99.90;;;;;;5035495;28;20570;-30
2023/10/20 10:23:15;;;;;;;2.58;2.38;;;7.90;99.90;;;;;;5038249;28;20510;-31
2023/10/20 10:25:47;;;;;;;2.58;2.22;;;7.90;99.90;;;;;;5038089;28;20511;-31
2023/10/20 10:28:18;;;;;;;2.40;2.20;;;7.90;99.90;;;;;;5042735;28;20489;-32
2023/10/20 10:30:48;;;;;;;2.20;2.00;;;7.90;99.90;;;;;;5040648;28;20424;-31
2023/10/20 10:33:22;;;;;;;2.50;2.30;;;7.90;99.90;;;;;;5045146;28;20037;-32
2023/10/20 10:35:48;;;;;;;3.65;2.30;;;7.90;99.90;;;;;;5040258;28;20052;-31
2023/10/20 10:38:21;;;;;;;2.40;2.20;;;7.90;99.90;;;;;;5039548;28;20463;-31
2023/10/20 10:40:51;;;;;;;2.70;2.50;;;7.90;99.90;;;;;;5037275;28;20045;-32
2023/10/20 10:43:19;;;;;;;2.40;2.30;;;7.90;99.90;;;;;;5040746;28;20091;-30
2023/10/20 10:45:50;;;;;;;3.35;2.38;;;7.90;99.90;;;;;;5036835;28;20048;-30
2023/10/20 10:48:16;;;;;;;2.50;2.30;;;7.90;99.90;;;;;;5048949;28;20090;-31
2023/10/20 10:50:43;;;;;;;2.55;2.35;;;7.90;99.90;;;;;;5037509;28;20052;-31
2023/10/20 10:53:10;;;;;;;2.58;2.30;;;7.90;99.90;;;;;;5045246;28;20040;-31
2023/10/20 10:55:36;;;;;;;2.10;2.00;;;7.80;99.90;;;;;;5039140;28;20080;-31
2023/10/20 10:58:07;;;;;;;2.10;2.00;;;7.80;99.90;;;;;;5042405;28;20044;-31
2023/10/20 11:00:34;;;;;;;2.25;2.13;;;7.80;99.90;;;;;;5042343;28;20081;-30
2023/10/20 11:03:01;;;;;;;2.20;2.10;;;7.80;99.90;;;;;;5042254;28;20056;-30
2023/10/20 11:05:28;;;;;;;2.47;2.28;;;7.80;99.90;;;;;;5043897;28;20041;-32
2023/10/20 11:07:55;;;;;;;2.08;1.98;;;7.80;99.90;;;;;;5038304;28;20069;-32
2023/10/20 11:10:21;;;;;;;1.90;1.80;;;7.80;99.90;;;;;;5048550;28;20037;-32
2023/10/20 11:12:49;;;;;;;2.28;2.17;;;7.80;99.90;;;;;;5046597;28;20040;-31
2023/10/20 11:15:16;;;;;;;3.00;1.92;;;7.80;99.90;;;;;;5042098;28;20029;-31
2023/10/20 11:17:42;;;;;;;4.22;2.08;;;7.80;99.90;;;;;;5038390;28;20447;-32
2023/10/20 11:20:09;;;;;;;2.35;2.13;;;7.80;99.90;;;;;;5048204;28;20091;-33
2023/10/20 11:22:38;;;;;;;2.22;2.03;;;7.80;99.90;;;;;;5049099;28;20055;-31
2023/10/20 11:25:05;;;;;;;2.05;1.88;;;7.80;99.90;;;;;;5044479;28;20405;-30
2023/10/20 11:27:43;;;;;;;2.08;1.63;;;7.80;99.90;;;;;;5048347;28;20098;-30
2023/10/20 11:30:12;;;;;;;1.67;1.58;;;7.80;99.90;;;;;;5044779;28;20128;-31
2023/10/20 11:32:38;;;;;;;1.92;1.83;;;7.80;99.90;;;;;;5045469;28;20339;-31
2023/10/20 11:35:06;;;;;;;2.70;1.80;;;7.80;99.90;;;;;;5045927;28;20455;-31
2023/10/20 11:37:32;;;;;;;1.80;1.70;;;7.80;99.90;;;;;;5051393;28;20041;-33
2023/10/20 11:39:57;;;;;;;2.53;2.03;;;7.80;99.90;;;;;;5048553;28;20041;-31
2023/10/20 11:42:23;;;;;;;2.13;1.83;;;7.80;99.90;;;;;;5052878;28;20046;-31
2023/10/20 11:44:49;;;;;;;2.03;1.90;;;7.80;99.90;;;;;;5068734;28;20059;-27
2023/10/20 11:47:15;;;;;;;1.60;1.50;;;7.80;99.90;;;;;;5073032;28;20491;-31
2023/10/20 11:49:41;;;;;;;1.98;1.88;;;7.80;99.90;;;;;;5072976;28;20081;-30
2023/10/20 11:52:08;;;;;;;3.72;1.92;;;7.80;99.90;;;;;;5072783;28;20044;-30
2023/10/20 11:54:34;;;;;;;2.28;1.50;;;7.80;99.90;;;;;;5072712;28;20121;-29
2023/10/20 11:57:01;;;;;;;1.48;1.38;;;7.70;99.90;;;;;;5072643;28;20090;-30
2023/10/20 11:59:26;;;;;;;1.40;1.30;;;7.70;99.90;;;;;;5072743;28;20484;-30
2023/10/20 12:01:52;;;;;;;1.13;1.02;;;7.80;99.90;;;;;;5072938;28;20047;-31
2023/10/20 12:04:18;;;;;;;1.75;0.90;;;7.80;99.90;;;;;;5072151;28;20036;-29
2023/10/20 12:06:44;;;;;;;0.80;0.80;;;7.80;99.90;;;;;;5072367;28;20106;-32
2023/10/20 12:09:10;;;;;;;1.15;0.90;;;7.80;99.90;;;;;;5072356;28;20045;-32
2023/10/20 12:11:37;;;;;;;1.15;1.05;;;7.80;99.90;;;;;;5072277;28;20146;-31
2023/10/20 12:14:04;;;;;;;1.05;0.70;;;7.80;99.90;;;;;;5072874;28;20068;-29
2023/10/20 12:16:30;;;;;;;1.08;1.00;;;7.80;99.90;;;;;;5072708;28;20448;-31
2023/10/20 12:19:01;;;;;;;1.25;1.20;;;7.80;99.90;;;;;;5071289;28;20076;-30
2023/10/20 12:21:30;;;;;;;1.02;0.93;;;7.80;99.90;;;;;;5072637;28;20045;-30
2023/10/20 12:23:56;;;;;;;1.25;1.00;;;7.80;99.90;;;;;;5072441;28;20394;-30
2023/10/20 12:26:22;;;;;;;1.17;1.08;;;7.80;99.90;;;;;;5072072;28;20082;-29
2023/10/20 12:28:49;;;;;;;1.35;0.95;;;7.80;99.90;;;;;;5073649;28;20036;-31
2023/10/20 12:31:15;;;;;;;1.10;0.80;;;7.80;99.90;;;;;;5076674;28;20407;-31
2023/10/20 12:33:44;;;;;;;1.42;0.80;;;7.80;99.90;;;;;;5059305;28;20041;-33
2023/10/20 12:36:13;;;;;;;0.77;0.73;;;7.80;99.90;;;;;;5044095;28;20049;-34
2023/10/20 12:38:40;;;;;;;0.77;0.77;;;7.80;99.90;;;;;;5047874;28;20103;-34
2023/10/20 12:41:07;;;;;;;0.95;0.70;;;7.80;99.90;;;;;;5051842;28;20174;-34
2023/10/20 12:43:33;;;;;;;0.70;0.70;;;7.80;99.90;;;;;;5035580;28;20041;-32
2023/10/20 12:46:01;;;;;;;0.50;0.50;;;7.80;99.90;;;;;;5041031;28;20108;-33
2023/10/20 12:48:26;;;;;;;2.95;0.90;;;7.80;99.90;;;;;;5047867;28;20037;-34
2023/10/20 12:50:53;;;;;;;1.48;0.60;;;7.80;99.90;;;;;;5041198;28;20044;-33
2023/10/20 12:53:23;;;;;;;0.80;0.80;;;7.70;99.90;;;;;;5048440;28;20120;-33
2023/10/20 12:55:49;;;;;;;0.75;0.70;;;7.70;99.90;;;;;;5043911;28;20045;-33
2023/10/20 12:58:14;;;;;;;1.42;0.80;;;7.80;99.90;;;;;;5044516;28;20530;-34
2023/10/20 13:00:42;;;;;;;1.95;0.80;;;7.80;99.90;;;;;;5047745;28;20490;-35
2023/10/20 13:03:07;;;;;;;0.95;0.80;;;7.70;99.90;;;;;;5046784;28;20060;-33
2023/10/20 13:05:33;;;;;;;0.93;0.73;;;7.80;99.90;;;;;;5050372;28;20042;-35
2023/10/20 13:08:00;;;;;;;1.73;0.85;;;7.70;99.90;;;;;;5035993;28;20048;-34
2023/10/20 13:10:26;;;;;;;1.73;0.80;;;7.80;99.90;;;;;;5041947;28;20041;-34
2023/10/20 13:12:52;;;;;;;0.70;0.70;;;7.70;99.90;;;;;;5037436;28;20467;-33
2023/10/20 13:15:22;;;;;;;0.80;0.80;;;7.70;99.90;;;;;;5045280;28;20029;-34
2023/10/20 13:17:47;;;;;;;0.60;0.60;;;7.70;99.90;;;;;;5048380;28;20511;-34
2023/10/20 13:20:13;;;;;;;0.70;0.70;;;7.70;99.90;;;;;;5046197;28;20045;-35